Pine Run, South Dakota
Current Conditions -  °F | °C
As of 9:52 PM on Wednesday 22 Oct 2014 (Local Time) from KVTN Reporting Station
Clear Clear  
Wind Chill: 44°   Ceiling: Unl
Heat Index: 44°   Visibility: 10mi
Dew Point: 38°   Wind: 3mph
Humidity: 79%   Direction: 200°SSW
Pressure: 30.05"   Gusts: NA
Location:  43.1909°N, 100.475°W
Report Text: KVTN 230252Z AUTO 20003KT 10SM CLR 07/03 A3005 RMK AO2 SLP180 T00670033 51007
Loading
Personal Weather Stations






























Interactive Weather Map
Tropical Storm Tracking
New forecast layout! Learn more

10-Day Weather Forecast

Advertisements
Track Severe Weather on mobile